SSEC Globe Logo

Space Science and Engineering Center

Regional Terminal Forecasts

KMSN 220520Z 2206/2306 00000KT P6SM BKN200 FM221500 04004KT
     P6SM SCT050 FM221900 04005KT P6SM BKN040 FM222300
     07006KT P6SM BKN045 FM230100 VRB04KT P6SM SCT060=
KMKE 220520Z 2206/2312 33005KT P6SM BKN250 FM221100 03005KT
     P6SM SCT250 FM221500 07008KT P6SM SCT250 FM221900
     05009KT P6SM BKN045 FM230000 04008KT P6SM SCT070=
KGRB 220520Z 2206/2306 36005KT P6SM SKC FM221000 02004KT
     P6SM BKN070 FM221600 03009KT P6SM SCT040 BKN070
     FM222300 04006KT P6SM SCT070=
KAUW 220520Z 2206/2306 VRB03KT P6SM SCT070 FM220800 VRB03KT
     P6SM BKN060 FM221600 07006KT P6SM SCT035 BKN060
     FM222300 09003KT P6SM SCT070=
KEAU 220520Z 2206/2306 00000KT P6SM SCT070 FM221900 03005KT
     P6SM SCT050 FM230200 VRB03KT P6SM SKC=
KLSE 220520Z 2206/2306 33003KT P6SM SCT060 FM221000 VRB03KT
     P6SM BCFG SCT004 FM221400 35004KT P6SM SKC FM221800
     01006KT P6SM BKN060 FM230100 07003KT P6SM SCT060=
KDBQ 220527Z 2206/2306 VRB04KT P6SM BKN120 FM220900 VRB03KT
     5SM BR FEW200 FM221500 01006KT P6SM SCT250 FM230100
     06004KT P6SM SCT250=
TAF KRFD 220521Z 2206/2306 34005KT P6SM OVC150 FM221200
     02006KT P6SM BKN150 FM221600 05008KT P6SM SCT050=
KORD 220521Z 2206/2312 34006KT P6SM SCT040 OVC150 FM221200
     03006KT P6SM SCT040 BKN150 FM221500 06012KT P6SM SCT050
     FM230100 04005KT P6SM FEW250=